Time;durP1;ratioP1;P1;durP2;ratioP2;P2;SDS_P1;SDS_P2;PMS_P1;PMS_P2;Temp;Humidity;BMP_temperature;BMP_pressure;BME280_temperature;BME280_humidity;BME280_pressure;Samples;Min_cycle;Max_cycle;Signal;HPM_P1;HPM_P2
2021/05/22 00:01:48;;;;;;;5.40;2.23;;;;;;;;;;3565554;39;20461;-74
2021/05/22 00:04:14;;;;;;;3.10;2.03;;;;;;;;;;3592865;39;20419;-74
2021/05/22 00:06:41;;;;;;;10.17;2.23;;;;;;;;;;3594901;39;20917;-74
2021/05/22 00:09:33;;;;;;;6.83;1.50;;;;;;;;;;3593219;39;20497;-74
2021/05/22 00:11:59;;;;;;;2.20;1.77;;;;;;;;;;3574311;39;20444;-75
2021/05/22 00:14:27;;;;;;;2.30;1.80;;;;;;;;;;3573608;39;20427;-74
2021/05/22 00:16:53;;;;;;;3.03;1.60;;;;;;;;;;3567940;40;20595;-74
2021/05/22 00:19:19;;;;;;;2.83;1.60;;;;;;;;;;3574056;39;20432;-74
2021/05/22 00:21:46;;;;;;;3.67;1.70;;;;;;;;;;3558960;40;20413;-75
2021/05/22 00:24:13;;;;;;;6.07;1.63;;;;;;;;;;3574963;39;20443;-74
2021/05/22 00:26:39;;;;;;;5.47;1.80;;;;;;;;;;3575732;39;20476;-74
2021/05/22 00:29:05;;;;;;;3.13;1.63;;;;;;;;;;3574597;39;20451;-74
2021/05/22 00:31:33;;;;;;;4.17;2.13;;;;;;;;;;3565730;39;20424;-74
2021/05/22 00:33:59;;;;;;;3.80;1.47;;;;;;;;;;3567513;39;20418;-74
2021/05/22 00:36:25;;;;;;;5.60;2.10;;;;;;;;;;3576363;39;20417;-74
2021/05/22 00:38:51;;;;;;;2.60;1.80;;;;;;;;;;3575353;40;20405;-74
2021/05/22 00:41:17;;;;;;;2.63;2.03;;;;;;;;;;3575084;39;20892;-74
2021/05/22 00:43:44;;;;;;;5.13;1.80;;;;;;;;;;3550378;40;20546;-74
2021/05/22 00:46:10;;;;;;;6.07;2.00;;;;;;;;;;3574947;40;20439;-74
2021/05/22 00:48:36;;;;;;;3.57;2.07;;;;;;;;;;3584190;39;20403;-73
2021/05/22 00:51:03;;;;;;;2.13;1.60;;;;;;;;;;3594379;39;20418;-74
2021/05/22 00:53:30;;;;;;;9.27;1.80;;;;;;;;;;3590737;39;20536;-74
2021/05/22 00:56:00;;;;;;;5.13;2.17;;;;;;;;;;3593988;39;20426;-74
2021/05/22 00:58:26;;;;;;;3.63;1.67;;;;;;;;;;3593820;39;21171;-74
2021/05/22 01:00:55;;;;;;;8.00;2.47;;;;;;;;;;3593478;39;20473;-74
2021/05/22 01:03:25;;;;;;;1.73;1.50;;;;;;;;;;3590349;39;20439;-74
2021/05/22 01:05:52;;;;;;;5.90;2.33;;;;;;;;;;3665652;22;20429;-80
2021/05/22 01:08:23;;;;;;;9.23;2.60;;;;;;;;;;3615755;39;21188;-78
2021/05/22 01:11:01;;;;;;;3.43;2.00;;;;;;;;;;3606037;39;20495;-79
2021/05/22 01:13:29;;;;;;;6.93;2.33;;;;;;;;;;3594753;39;20531;-79
2021/05/22 01:15:55;;;;;;;4.73;1.80;;;;;;;;;;3592471;39;21217;-80
2021/05/22 01:18:23;;;;;;;14.43;2.57;;;;;;;;;;3587111;39;20430;-79
2021/05/22 01:20:57;;;;;;;8.60;3.50;;;;;;;;;;3593302;39;20429;-79
2021/05/22 01:23:32;;;;;;;3.83;2.00;;;;;;;;;;3610787;39;20420;-79
2021/05/22 01:25:58;;;;;;;6.47;2.43;;;;;;;;;;3598382;39;20394;-79
2021/05/22 01:28:25;;;;;;;6.67;2.63;;;;;;;;;;3603810;39;20450;-79
2021/05/22 01:30:52;;;;;;;2.90;2.23;;;;;;;;;;3602685;39;20415;-79
2021/05/22 01:33:20;;;;;;;2.07;1.83;;;;;;;;;;3593422;39;20383;-79
2021/05/22 01:35:46;;;;;;;4.20;2.60;;;;;;;;;;3601585;39;20434;-78
2021/05/22 01:38:12;;;;;;;3.13;1.93;;;;;;;;;;3593187;39;20832;-79
2021/05/22 01:40:38;;;;;;;2.70;2.00;;;;;;;;;;3602562;39;20575;-78
2021/05/22 01:43:06;;;;;;;4.20;1.80;;;;;;;;;;3612076;39;20731;-79
2021/05/22 01:45:41;;;;;;;4.30;2.03;;;;;;;;;;3614595;39;20480;-79
2021/05/22 01:48:07;;;;;;;2.90;2.10;;;;;;;;;;3596555;39;20394;-79
2021/05/22 01:50:35;;;;;;;4.20;2.20;;;;;;;;;;3608857;39;20418;-79
2021/05/22 01:53:02;;;;;;;5.00;2.37;;;;;;;;;;3594323;39;20773;-79
2021/05/22 01:55:28;;;;;;;3.70;1.90;;;;;;;;;;3600486;39;20399;-79
2021/05/22 01:57:55;;;;;;;1.90;1.60;;;;;;;;;;3600590;39;20409;-79
2021/05/22 02:00:21;;;;;;;3.43;2.03;;;;;;;;;;3593084;39;20568;-79
2021/05/22 02:02:54;;;;;;;3.10;2.07;;;;;;;;;;3593225;39;20714;-79
2021/05/22 02:05:20;;;;;;;3.53;1.83;;;;;;;;;;3608255;39;20423;-79
2021/05/22 02:07:47;;;;;;;2.80;1.63;;;;;;;;;;3597531;39;21218;-79
2021/05/22 02:10:14;;;;;;;5.53;2.33;;;;;;;;;;3591807;39;21886;-80
2021/05/22 02:12:42;;;;;;;2.33;1.70;;;;;;;;;;3575006;39;20430;-79
2021/05/22 02:15:10;;;;;;;1.80;1.53;;;;;;;;;;3584801;39;20444;-79
2021/05/22 02:17:40;;;;;;;4.53;1.93;;;;;;;;;;3590429;39;21222;-79
2021/05/22 02:20:07;;;;;;;4.40;1.90;;;;;;;;;;3590717;39;20430;-79
2021/05/22 02:22:34;;;;;;;5.70;1.70;;;;;;;;;;3576792;39;20418;-79
2021/05/22 02:25:00;;;;;;;5.53;2.47;;;;;;;;;;3598039;39;20430;-79
2021/05/22 02:27:26;;;;;;;5.43;2.10;;;;;;;;;;3582991;39;20898;-79
2021/05/22 02:29:52;;;;;;;3.10;1.50;;;;;;;;;;3574050;39;20408;-80
2021/05/22 02:32:19;;;;;;;4.20;2.17;;;;;;;;;;3584265;39;20444;-80
2021/05/22 02:34:51;;;;;;;2.20;1.43;;;;;;;;;;3593250;39;20402;-80
2021/05/22 02:37:19;;;;;;;2.90;1.73;;;;;;;;;;3601618;39;20406;-80
2021/05/22 02:39:45;;;;;;;5.60;1.70;;;;;;;;;;3586889;39;20438;-79
2021/05/22 02:42:14;;;;;;;2.27;1.60;;;;;;;;;;3584511;39;20418;-79
2021/05/22 02:44:40;;;;;;;2.70;1.83;;;;;;;;;;3583054;39;22458;-80
2021/05/22 02:47:07;;;;;;;3.40;2.53;;;;;;;;;;3598897;39;20437;-80
2021/05/22 02:49:41;;;;;;;5.57;2.10;;;;;;;;;;3592508;39;20976;-80
2021/05/22 02:52:07;;;;;;;8.00;3.20;;;;;;;;;;3573945;39;21007;-80
2021/05/22 02:54:39;;;;;;;6.43;2.17;;;;;;;;;;3584533;39;20450;-80
2021/05/22 02:57:05;;;;;;;4.17;2.13;;;;;;;;;;3589991;39;20443;-80
2021/05/22 02:59:32;;;;;;;3.10;2.00;;;;;;;;;;3584051;39;20420;-80
2021/05/22 03:01:59;;;;;;;3.23;1.70;;;;;;;;;;3575509;39;20422;-80
2021/05/22 03:04:26;;;;;;;4.30;2.30;;;;;;;;;;3590522;39;20775;-80
2021/05/22 03:06:52;;;;;;;5.93;2.20;;;;;;;;;;3586943;39;20485;-79
2021/05/22 03:09:18;;;;;;;7.03;2.23;;;;;;;;;;3594377;39;20414;-80
2021/05/22 03:11:44;;;;;;;4.13;1.50;;;;;;;;;;3602146;39;20425;-80
2021/05/22 03:14:10;;;;;;;4.20;1.97;;;;;;;;;;3602628;39;20414;-79
2021/05/22 03:16:36;;;;;;;5.30;1.70;;;;;;;;;;3602539;39;20444;-79
2021/05/22 03:19:02;;;;;;;2.40;1.73;;;;;;;;;;3591494;39;20461;-80
2021/05/22 03:21:28;;;;;;;2.70;1.60;;;;;;;;;;3599662;39;20418;-79
2021/05/22 03:23:54;;;;;;;3.43;2.20;;;;;;;;;;3593599;39;20430;-80
2021/05/22 03:26:20;;;;;;;2.07;1.87;;;;;;;;;;3605462;39;20740;-79
2021/05/22 03:28:46;;;;;;;3.07;1.70;;;;;;;;;;3593112;39;20457;-80
2021/05/22 03:31:13;;;;;;;4.40;1.60;;;;;;;;;;3610338;39;20499;-79
2021/05/22 03:33:39;;;;;;;2.23;1.63;;;;;;;;;;3589017;39;20421;-80
2021/05/22 03:36:05;;;;;;;4.40;2.10;;;;;;;;;;3598947;39;20909;-79
2021/05/22 03:38:31;;;;;;;5.20;1.50;;;;;;;;;;3601005;39;20425;-80
2021/05/22 03:40:57;;;;;;;3.17;1.77;;;;;;;;;;3585786;39;20420;-80
2021/05/22 03:43:23;;;;;;;7.37;2.77;;;;;;;;;;3602663;39;20485;-80
2021/05/22 03:45:49;;;;;;;1.80;1.60;;;;;;;;;;3604373;39;20454;-79
2021/05/22 03:48:15;;;;;;;3.17;1.70;;;;;;;;;;3592635;39;20481;-80
2021/05/22 03:51:04;;;;;;;4.37;1.87;;;;;;;;;;3599737;39;20454;-80
2021/05/22 03:53:31;;;;;;;4.37;2.40;;;;;;;;;;3572642;39;20468;-80
2021/05/22 03:55:58;;;;;;;2.73;2.20;;;;;;;;;;3574011;39;20432;-79
2021/05/22 03:58:24;;;;;;;2.43;1.43;;;;;;;;;;3565181;39;20401;-80
2021/05/22 04:00:50;;;;;;;8.33;1.73;;;;;;;;;;3572707;39;20455;-80
2021/05/22 04:03:16;;;;;;;4.13;1.83;;;;;;;;;;3569480;39;20463;-80
2021/05/22 04:05:42;;;;;;;3.47;2.33;;;;;;;;;;3574485;39;20420;-80
2021/05/22 04:08:08;;;;;;;4.13;3.73;;;;;;;;;;3583133;39;23606;-80
2021/05/22 04:10:34;;;;;;;4.13;1.70;;;;;;;;;;3571373;39;21007;-80
2021/05/22 04:13:00;;;;;;;4.40;1.87;;;;;;;;;;3576240;39;20459;-80
2021/05/22 04:15:28;;;;;;;3.43;3.10;;;;;;;;;;3573799;39;20420;-80
2021/05/22 04:17:54;;;;;;;5.70;2.20;;;;;;;;;;3581377;39;20417;-80
2021/05/22 04:20:20;;;;;;;4.83;1.60;;;;;;;;;;3581619;39;20523;-80
2021/05/22 04:22:46;;;;;;;4.50;2.00;;;;;;;;;;3574065;39;20408;-80
2021/05/22 04:25:12;;;;;;;4.23;1.53;;;;;;;;;;3574566;39;20413;-80
2021/05/22 04:27:40;;;;;;;4.27;1.67;;;;;;;;;;3571008;39;20432;-80
2021/05/22 04:30:06;;;;;;;3.73;1.70;;;;;;;;;;3583677;39;20418;-79
2021/05/22 04:32:32;;;;;;;8.20;2.17;;;;;;;;;;3599540;39;20398;-80
2021/05/22 04:34:58;;;;;;;3.50;1.83;;;;;;;;;;3595272;39;20830;-79
2021/05/22 04:37:24;;;;;;;3.10;1.50;;;;;;;;;;3600375;39;20405;-79
2021/05/22 04:39:51;;;;;;;3.33;2.10;;;;;;;;;;3591693;39;20414;-79
2021/05/22 04:42:17;;;;;;;3.77;1.90;;;;;;;;;;3606926;39;20409;-80
2021/05/22 04:44:43;;;;;;;3.27;1.93;;;;;;;;;;3593432;39;20410;-80
2021/05/22 04:47:09;;;;;;;2.87;1.47;;;;;;;;;;3593074;39;20418;-81
2021/05/22 04:49:36;;;;;;;7.60;1.90;;;;;;;;;;3595993;39;20459;-80
2021/05/22 04:52:02;;;;;;;4.70;1.93;;;;;;;;;;3591098;39;20810;-80
2021/05/22 04:54:28;;;;;;;2.93;2.33;;;;;;;;;;3593066;39;20497;-79
2021/05/22 04:56:54;;;;;;;4.10;2.07;;;;;;;;;;3592722;39;20424;-80
2021/05/22 04:59:20;;;;;;;2.30;1.90;;;;;;;;;;3596218;39;20418;-80
2021/05/22 05:01:46;;;;;;;8.80;2.77;;;;;;;;;;3586314;39;20440;-80
2021/05/22 05:04:14;;;;;;;9.50;2.03;;;;;;;;;;3611438;39;20503;-80
2021/05/22 05:06:40;;;;;;;3.17;2.10;;;;;;;;;;3598240;39;20450;-80
2021/05/22 05:09:07;;;;;;;3.87;2.03;;;;;;;;;;3593539;39;20437;-79
2021/05/22 05:11:33;;;;;;;2.60;1.80;;;;;;;;;;3595143;39;20401;-79
2021/05/22 05:13:59;;;;;;;6.67;1.77;;;;;;;;;;3606471;39;20458;-80
2021/05/22 05:16:27;;;;;;;2.83;2.10;;;;;;;;;;3589055;39;20420;-79
2021/05/22 05:18:55;;;;;;;2.60;2.00;;;;;;;;;;3591430;39;20450;-78
2021/05/22 05:21:21;;;;;;;2.50;2.30;;;;;;;;;;3614781;39;20403;-79
2021/05/22 05:23:47;;;;;;;3.07;2.20;;;;;;;;;;3592897;39;20499;-80
2021/05/22 05:26:13;;;;;;;2.00;1.90;;;;;;;;;;3597364;39;21028;-79
2021/05/22 05:28:39;;;;;;;2.67;2.10;;;;;;;;;;3606540;39;20650;-79
2021/05/22 05:31:06;;;;;;;8.23;2.03;;;;;;;;;;3617588;39;20394;-79
2021/05/22 05:33:32;;;;;;;7.80;2.13;;;;;;;;;;3597246;39;20434;-79
2021/05/22 05:35:58;;;;;;;3.73;2.20;;;;;;;;;;3596614;39;20496;-79
2021/05/22 05:38:24;;;;;;;7.67;2.90;;;;;;;;;;3604538;39;21017;-79
2021/05/22 05:40:54;;;;;;;7.60;2.63;;;;;;;;;;3597481;39;20416;-79
2021/05/22 05:43:20;;;;;;;5.50;2.17;;;;;;;;;;3605420;39;20548;-79
2021/05/22 05:45:46;;;;;;;2.97;2.70;;;;;;;;;;3602346;39;21099;-79
2021/05/22 05:48:12;;;;;;;5.00;2.20;;;;;;;;;;3589483;39;20481;-79
2021/05/22 05:50:39;;;;;;;2.43;1.70;;;;;;;;;;3605148;39;20394;-79
2021/05/22 05:53:05;;;;;;;10.00;2.90;;;;;;;;;;3596154;39;20751;-79
2021/05/22 05:55:31;;;;;;;5.47;3.13;;;;;;;;;;3595864;39;20407;-79
2021/05/22 05:57:57;;;;;;;8.37;2.53;;;;;;;;;;3593183;39;20437;-79
2021/05/22 06:00:24;;;;;;;7.60;2.37;;;;;;;;;;3594157;39;20443;-79
2021/05/22 06:02:50;;;;;;;5.53;2.03;;;;;;;;;;3615967;39;20405;-79
2021/05/22 06:05:17;;;;;;;4.23;2.13;;;;;;;;;;3601734;39;20410;-80
2021/05/22 06:07:44;;;;;;;7.43;2.10;;;;;;;;;;3602598;39;20500;-79
2021/05/22 06:10:10;;;;;;;3.07;1.67;;;;;;;;;;3587480;39;20419;-79
2021/05/22 06:12:39;;;;;;;2.30;1.60;;;;;;;;;;3597293;39;20453;-79
2021/05/22 06:17:42;;;;;;;7.13;2.03;;;;;;;;;;3598344;39;20469;-80
2021/05/22 06:20:08;;;;;;;2.90;2.60;;;;;;;;;;3606103;39;20395;-79
2021/05/22 06:22:34;;;;;;;3.37;2.10;;;;;;;;;;3609121;39;20423;-81
2021/05/22 06:25:00;;;;;;;2.37;1.63;;;;;;;;;;3584556;39;20411;-80
2021/05/22 06:27:27;;;;;;;5.73;1.90;;;;;;;;;;3598561;39;20468;-80
2021/05/22 06:29:53;;;;;;;5.10;1.80;;;;;;;;;;3609394;39;20508;-80
2021/05/22 06:32:19;;;;;;;3.13;1.70;;;;;;;;;;3583408;39;21238;-80
2021/05/22 06:34:47;;;;;;;3.63;2.00;;;;;;;;;;3598229;39;20546;-80
2021/05/22 06:37:13;;;;;;;2.30;1.60;;;;;;;;;;3598078;39;20403;-80
2021/05/22 06:39:39;;;;;;;4.73;2.00;;;;;;;;;;3590697;39;20511;-81
2021/05/22 06:42:05;;;;;;;5.00;2.40;;;;;;;;;;3590885;39;20439;-81
2021/05/22 06:44:46;;;;;;;2.50;2.30;;;;;;;;;;3596600;39;20414;-80
2021/05/22 06:47:12;;;;;;;7.67;2.00;;;;;;;;;;3594645;39;20407;-81
2021/05/22 06:49:38;;;;;;;4.30;2.10;;;;;;;;;;3593743;39;20418;-82
2021/05/22 06:52:31;;;;;;;8.83;1.90;;;;;;;;;;3588531;39;20426;-82
2021/05/22 06:54:57;;;;;;;3.27;2.20;;;;;;;;;;3563024;40;20423;-81
2021/05/22 06:57:23;;;;;;;6.87;2.10;;;;;;;;;;3554246;40;20509;-82
2021/05/22 06:59:53;;;;;;;3.60;1.90;;;;;;;;;;3561795;40;20419;-81
2021/05/22 07:02:19;;;;;;;2.57;2.17;;;;;;;;;;3554196;40;20886;-82
2021/05/22 07:04:47;;;;;;;9.00;1.97;;;;;;;;;;3560335;40;20419;-82
2021/05/22 07:07:13;;;;;;;6.60;1.80;;;;;;;;;;3545384;40;20462;-81
2021/05/22 07:09:39;;;;;;;4.93;1.97;;;;;;;;;;3571088;40;20460;-81
2021/05/22 07:12:06;;;;;;;13.23;1.90;;;;;;;;;;3574549;40;20987;-82
2021/05/22 07:14:32;;;;;;;5.73;2.00;;;;;;;;;;3553800;40;21255;-82
2021/05/22 07:19:32;;;;;;;10.90;2.17;;;;;;;;;;3614333;39;20415;-82
2021/05/22 07:21:58;;;;;;;10.87;1.60;;;;;;;;;;3592839;39;20419;-83
2021/05/22 07:24:25;;;;;;;5.47;2.40;;;;;;;;;;3601902;39;20426;-82
2021/05/22 07:26:52;;;;;;;7.70;2.27;;;;;;;;;;3610974;39;20423;-81
2021/05/22 07:29:18;;;;;;;7.40;3.67;;;;;;;;;;3580105;40;20454;-82
2021/05/22 07:31:45;;;;;;;4.13;2.13;;;;;;;;;;3578954;40;21023;-81
2021/05/22 07:34:11;;;;;;;4.13;2.23;;;;;;;;;;3550228;40;20504;-82
2021/05/22 07:36:38;;;;;;;11.40;2.67;;;;;;;;;;3550113;40;20435;-80
2021/05/22 07:39:06;;;;;;;3.73;1.77;;;;;;;;;;3546277;40;20407;-82
2021/05/22 07:41:33;;;;;;;2.20;1.63;;;;;;;;;;3536106;40;20408;-82
2021/05/22 07:43:59;;;;;;;1.73;1.60;;;;;;;;;;3535522;40;20549;-82
2021/05/22 07:46:26;;;;;;;2.70;1.70;;;;;;;;;;3523592;40;20481;-82
2021/05/22 07:48:53;;;;;;;6.37;2.07;;;;;;;;;;3531803;40;20408;-81
2021/05/22 07:51:19;;;;;;;4.63;2.13;;;;;;;;;;3535450;40;21393;-82
2021/05/22 07:53:46;;;;;;;7.03;1.90;;;;;;;;;;3528193;40;21036;-83
2021/05/22 07:56:12;;;;;;;6.30;2.07;;;;;;;;;;3532966;40;20469;-81
2021/05/22 07:58:39;;;;;;;2.60;1.93;;;;;;;;;;3533780;40;20444;-81
2021/05/22 08:01:05;;;;;;;11.23;3.00;;;;;;;;;;3535990;40;20413;-81
2021/05/22 08:03:31;;;;;;;4.93;1.20;;;;;;;;;;3542574;40;20417;-81
2021/05/22 08:05:57;;;;;;;7.97;1.93;;;;;;;;;;3553722;40;20424;-81
2021/05/22 08:08:23;;;;;;;3.47;1.20;;;;;;;;;;3542055;40;20444;-80
2021/05/22 08:10:49;;;;;;;1.40;1.30;;;;;;;;;;3558762;40;20464;-81
2021/05/22 08:13:15;;;;;;;3.10;1.53;;;;;;;;;;3587787;39;20414;-81
2021/05/22 08:15:42;;;;;;;2.33;1.70;;;;;;;;;;3594786;39;20482;-81
2021/05/22 08:18:08;;;;;;;2.33;2.10;;;;;;;;;;3581461;39;20416;-81
2021/05/22 08:20:34;;;;;;;3.00;1.80;;;;;;;;;;3596594;39;20511;-82
2021/05/22 08:23:01;;;;;;;2.20;1.53;;;;;;;;;;3584071;39;20565;-82
2021/05/22 08:25:27;;;;;;;3.10;1.37;;;;;;;;;;3594456;39;20403;-82
2021/05/22 08:27:54;;;;;;;3.43;2.00;;;;;;;;;;3593497;39;20380;-82
2021/05/22 08:30:21;;;;;;;2.10;1.60;;;;;;;;;;3580617;39;20416;-81
2021/05/22 08:32:47;;;;;;;7.70;1.97;;;;;;;;;;3594788;39;20474;-82
2021/05/22 08:35:14;;;;;;;4.90;3.00;;;;;;;;;;3574065;39;20422;-82
2021/05/22 08:37:41;;;;;;;3.40;1.73;;;;;;;;;;3567963;40;20389;-83
2021/05/22 08:40:08;;;;;;;5.27;3.00;;;;;;;;;;3553927;40;20477;-83
2021/05/22 08:42:35;;;;;;;5.23;1.70;;;;;;;;;;3555381;40;20478;-82
2021/05/22 08:45:11;;;;;;;4.30;1.60;;;;;;;;;;3555850;40;20459;-83
2021/05/22 08:47:38;;;;;;;5.97;1.70;;;;;;;;;;3571904;40;20387;-82
2021/05/22 08:50:06;;;;;;;10.00;2.07;;;;;;;;;;3570305;40;20511;-82
2021/05/22 08:52:33;;;;;;;2.50;1.60;;;;;;;;;;3554713;40;20437;-81
2021/05/22 08:54:59;;;;;;;2.70;1.50;;;;;;;;;;3571342;40;20415;-82
2021/05/22 08:57:26;;;;;;;4.33;2.40;;;;;;;;;;3562229;40;20501;-83
2021/05/22 08:59:52;;;;;;;5.03;1.50;;;;;;;;;;3553794;40;20417;-82
2021/05/22 09:02:21;;;;;;;2.13;1.93;;;;;;;;;;3552004;40;20439;-82
2021/05/22 09:05:05;;;;;;;7.87;2.37;;;;;;;;;;3553764;40;20792;-81
2021/05/22 09:07:32;;;;;;;5.23;1.80;;;;;;;;;;3560161;39;20477;-82
2021/05/22 09:10:08;;;;;;;3.23;2.17;;;;;;;;;;3581484;39;20489;-82
2021/05/22 09:12:35;;;;;;;3.93;1.90;;;;;;;;;;3586813;39;20409;-82
2021/05/22 09:15:06;;;;;;;4.80;1.67;;;;;;;;;;3577527;39;20472;-81
2021/05/22 09:17:32;;;;;;;4.60;2.13;;;;;;;;;;3583717;39;20405;-82
2021/05/22 09:20:10;;;;;;;4.37;2.70;;;;;;;;;;3594166;39;20408;-83
2021/05/22 09:22:36;;;;;;;5.27;1.73;;;;;;;;;;3581119;39;20501;-84
2021/05/22 09:25:05;;;;;;;5.67;2.27;;;;;;;;;;3591682;39;20416;-83
2021/05/22 09:27:35;;;;;;;2.93;1.50;;;;;;;;;;3582528;39;20454;-82
2021/05/22 09:30:13;;;;;;;6.93;2.00;;;;;;;;;;3589928;39;20416;-83
2021/05/22 09:32:40;;;;;;;7.83;1.63;;;;;;;;;;3589401;39;20422;-83
2021/05/22 09:35:07;;;;;;;3.67;1.90;;;;;;;;;;3591066;39;20413;-82
2021/05/22 09:37:43;;;;;;;5.30;2.53;;;;;;;;;;3597368;39;21035;-83
2021/05/22 09:40:10;;;;;;;4.73;2.80;;;;;;;;;;3583349;39;20418;-83
2021/05/22 09:42:39;;;;;;;3.87;1.73;;;;;;;;;;3592175;39;20450;-82
2021/05/22 09:45:20;;;;;;;9.67;3.00;;;;;;;;;;3590445;39;20397;-83
2021/05/22 09:47:46;;;;;;;6.00;2.50;;;;;;;;;;3580430;39;20400;-82
2021/05/22 09:50:25;;;;;;;2.03;1.80;;;;;;;;;;3583403;39;20802;-83
2021/05/22 09:52:52;;;;;;;6.50;2.30;;;;;;;;;;3582388;39;20448;-82
2021/05/22 09:55:20;;;;;;;4.07;1.73;;;;;;;;;;3591401;39;20539;-82
2021/05/22 09:57:46;;;;;;;4.77;2.27;;;;;;;;;;3585341;39;20400;-81
2021/05/22 10:00:15;;;;;;;6.33;1.93;;;;;;;;;;3592059;39;20461;-82
2021/05/22 10:02:51;;;;;;;4.97;2.00;;;;;;;;;;3582989;39;20979;-82
2021/05/22 10:05:20;;;;;;;4.10;1.93;;;;;;;;;;3593335;39;20860;-82
2021/05/22 10:07:46;;;;;;;3.77;2.07;;;;;;;;;;3576917;39;20400;-82
2021/05/22 10:10:14;;;;;;;4.03;2.50;;;;;;;;;;3594263;39;20451;-82
2021/05/22 10:12:41;;;;;;;4.53;2.03;;;;;;;;;;3600454;39;20477;-82
2021/05/22 10:15:08;;;;;;;2.20;1.87;;;;;;;;;;3575715;39;20455;-81
2021/05/22 10:17:34;;;;;;;2.93;2.40;;;;;;;;;;3591867;39;20769;-82
2021/05/22 10:20:00;;;;;;;5.23;1.80;;;;;;;;;;3595577;39;20463;-83
2021/05/22 10:22:27;;;;;;;4.40;1.90;;;;;;;;;;3575519;40;20429;-81
2021/05/22 10:24:53;;;;;;;5.03;2.03;;;;;;;;;;3594265;39;20431;-82
2021/05/22 10:27:21;;;;;;;7.33;2.30;;;;;;;;;;3581690;40;20831;-83
2021/05/22 10:30:13;;;;;;;5.00;1.87;;;;;;;;;;3588050;40;20404;-84
2021/05/22 10:32:39;;;;;;;4.40;1.70;;;;;;;;;;3544066;40;20435;-82
2021/05/22 10:35:10;;;;;;;11.23;2.30;;;;;;;;;;3539865;40;20484;-82
2021/05/22 10:37:36;;;;;;;3.23;2.00;;;;;;;;;;3545881;40;20397;-81
2021/05/22 10:40:04;;;;;;;8.03;2.33;;;;;;;;;;3548747;40;20405;-82
2021/05/22 10:42:33;;;;;;;4.73;1.80;;;;;;;;;;3544361;40;20417;-81
2021/05/22 10:45:20;;;;;;;5.33;2.07;;;;;;;;;;3546109;40;20464;-82
2021/05/22 10:47:46;;;;;;;7.83;2.57;;;;;;;;;;3548197;40;20405;-80
2021/05/22 10:50:32;;;;;;;8.40;1.70;;;;;;;;;;3536430;40;20480;-82
2021/05/22 10:53:17;;;;;;;3.50;2.20;;;;;;;;;;3546410;40;20548;-82
2021/05/22 10:55:44;;;;;;;3.27;1.63;;;;;;;;;;3542090;40;20428;-82
2021/05/22 10:58:10;;;;;;;9.30;2.03;;;;;;;;;;3542092;40;20450;-82
2021/05/22 11:00:36;;;;;;;2.20;1.67;;;;;;;;;;3555497;40;20411;-83
2021/05/22 11:03:10;;;;;;;3.53;2.03;;;;;;;;;;3551942;40;20457;-81
2021/05/22 11:05:45;;;;;;;3.47;2.00;;;;;;;;;;3554242;40;20442;-83
2021/05/22 11:08:14;;;;;;;4.97;2.13;;;;;;;;;;3556012;40;20498;-82
2021/05/22 11:10:48;;;;;;;7.07;2.27;;;;;;;;;;3567887;40;20425;-82
2021/05/22 11:13:23;;;;;;;4.87;3.00;;;;;;;;;;3581596;39;21239;-83
2021/05/22 11:15:54;;;;;;;5.13;2.23;;;;;;;;;;3568947;40;20963;-83
2021/05/22 11:18:47;;;;;;;2.57;2.13;;;;;;;;;;3595426;39;20420;-82
2021/05/22 11:21:18;;;;;;;5.37;2.20;;;;;;;;;;3598111;39;20431;-82
2021/05/22 11:24:02;;;;;;;12.17;2.10;;;;;;;;;;3559819;40;20410;-82
2021/05/22 11:26:50;;;;;;;5.23;2.10;;;;;;;;;;3597532;39;21180;-83
2021/05/22 11:29:17;;;;;;;6.20;2.20;;;;;;;;;;3598508;39;20727;-83
2021/05/22 11:31:44;;;;;;;3.30;2.53;;;;;;;;;;3591095;39;20415;-82
2021/05/22 11:34:22;;;;;;;3.90;3.50;;;;;;;;;;3599656;39;20823;-81
2021/05/22 11:37:07;;;;;;;6.80;2.50;;;;;;;;;;3592431;39;20451;-81
2021/05/22 11:39:39;;;;;;;7.00;2.33;;;;;;;;;;3599290;39;20794;-82
2021/05/22 11:42:41;;;;;;;3.50;2.53;;;;;;;;;;3598577;39;21245;-82
2021/05/22 11:45:07;;;;;;;2.60;1.50;;;;;;;;;;3574458;40;20479;-82
2021/05/22 11:47:35;;;;;;;5.80;2.33;;;;;;;;;;3547764;40;20417;-82
2021/05/22 11:50:01;;;;;;;4.93;2.00;;;;;;;;;;3573504;40;20418;-81
2021/05/22 11:52:34;;;;;;;8.07;2.50;;;;;;;;;;3563228;40;20407;-82
2021/05/22 11:55:02;;;;;;;6.33;2.13;;;;;;;;;;3577757;40;20455;-84
2021/05/22 11:57:28;;;;;;;2.83;1.80;;;;;;;;;;3547897;40;20440;-82
2021/05/22 12:00:20;;;;;;;3.50;2.13;;;;;;;;;;3546991;40;20395;-81
2021/05/22 12:02:46;;;;;;;6.30;2.30;;;;;;;;;;3539337;40;21586;-82
2021/05/22 12:05:12;;;;;;;3.30;2.10;;;;;;;;;;3531636;40;21122;-82
2021/05/22 12:07:48;;;;;;;4.00;2.10;;;;;;;;;;3525739;40;20441;-81
2021/05/22 12:10:15;;;;;;;3.60;2.30;;;;;;;;;;3538285;40;20405;-82
2021/05/22 12:12:41;;;;;;;3.30;2.47;;;;;;;;;;3529410;40;20408;-80
2021/05/22 12:15:07;;;;;;;3.57;2.40;;;;;;;;;;3531025;40;20496;-81
2021/05/22 12:20:53;;;;;;;1.90;1.80;;;;;;;;;;3564483;40;20501;-83
2021/05/22 12:23:22;;;;;;;2.27;2.07;;;;;;;;;;3549686;40;21286;-83
2021/05/22 12:25:49;;;;;;;5.57;2.90;;;;;;;;;;3555663;40;20459;-82
2021/05/22 12:28:15;;;;;;;4.03;2.50;;;;;;;;;;3553087;40;21304;-83
2021/05/22 12:30:42;;;;;;;4.20;2.90;;;;;;;;;;3535767;40;20397;-82
2021/05/22 12:33:12;;;;;;;6.27;3.07;;;;;;;;;;3554721;40;20432;-82
2021/05/22 12:35:38;;;;;;;6.60;2.53;;;;;;;;;;3599971;23;20504;-83
2021/05/22 12:38:04;;;;;;;2.90;2.70;;;;;;;;;;3587329;39;20422;-83
2021/05/22 12:40:43;;;;;;;7.20;2.90;;;;;;;;;;3601833;39;20406;-82
2021/05/22 12:43:09;;;;;;;4.20;2.27;;;;;;;;;;3584535;39;20407;-81
2021/05/22 12:45:36;;;;;;;7.33;2.27;;;;;;;;;;3596381;39;20404;-82
2021/05/22 12:48:02;;;;;;;2.77;2.40;;;;;;;;;;3594086;39;20479;-82
2021/05/22 12:50:31;;;;;;;4.63;2.07;;;;;;;;;;3587514;39;20472;-82
2021/05/22 12:53:03;;;;;;;6.27;3.10;;;;;;;;;;3597097;39;20455;-83
2021/05/22 12:55:31;;;;;;;4.20;2.30;;;;;;;;;;3586530;39;20425;-83
2021/05/22 12:57:59;;;;;;;3.00;1.93;;;;;;;;;;3598778;39;20415;-82
2021/05/22 13:00:29;;;;;;;6.30;3.97;;;;;;;;;;3595162;39;20435;-83
2021/05/22 13:03:06;;;;;;;8.60;2.10;;;;;;;;;;3605884;39;20411;-83
2021/05/22 13:05:36;;;;;;;7.20;2.50;;;;;;;;;;3592556;39;20433;-82
2021/05/22 13:08:09;;;;;;;5.43;2.40;;;;;;;;;;3588615;39;20407;-82
2021/05/22 13:10:38;;;;;;;5.10;3.83;;;;;;;;;;3588135;39;20399;-82
2021/05/22 13:13:19;;;;;;;6.47;2.97;;;;;;;;;;3584823;39;20812;-82
2021/05/22 13:16:10;;;;;;;4.47;2.80;;;;;;;;;;3594539;39;20437;-82
2021/05/22 13:18:38;;;;;;;12.03;3.30;;;;;;;;;;3565153;40;20548;-83
2021/05/22 13:21:13;;;;;;;5.27;2.70;;;;;;;;;;3555863;40;20576;-84
2021/05/22 13:23:40;;;;;;;3.63;2.70;;;;;;;;;;3556146;40;20793;-84
2021/05/22 13:26:07;;;;;;;4.47;2.97;;;;;;;;;;3550933;40;20453;-83
2021/05/22 13:28:36;;;;;;;4.30;2.67;;;;;;;;;;3567331;40;20413;-83
2021/05/22 13:31:13;;;;;;;6.30;3.00;;;;;;;;;;3570988;40;20798;-82
2021/05/22 13:33:41;;;;;;;3.00;2.70;;;;;;;;;;3566456;40;20575;-82
2021/05/22 13:36:08;;;;;;;5.43;3.30;;;;;;;;;;3562063;40;20453;-82
2021/05/22 13:38:34;;;;;;;3.60;2.37;;;;;;;;;;3566509;40;20418;-82
2021/05/22 13:41:00;;;;;;;9.20;3.70;;;;;;;;;;3567770;40;20512;-82
2021/05/22 13:43:26;;;;;;;13.40;3.10;;;;;;;;;;3562460;40;20464;-82
2021/05/22 13:45:55;;;;;;;6.80;2.93;;;;;;;;;;3567474;40;20413;-83
2021/05/22 13:48:21;;;;;;;3.43;2.87;;;;;;;;;;3563490;40;20449;-82
2021/05/22 13:50:48;;;;;;;7.13;3.67;;;;;;;;;;3561397;40;20537;-82
2021/05/22 13:53:15;;;;;;;6.60;3.80;;;;;;;;;;3563874;40;20408;-82
2021/05/22 13:56:04;;;;;;;6.57;2.77;;;;;;;;;;3580371;40;20402;-81
2021/05/22 13:58:30;;;;;;;4.33;2.90;;;;;;;;;;3552042;40;20431;-82
2021/05/22 14:00:57;;;;;;;4.10;2.63;;;;;;;;;;3543266;40;20399;-82
2021/05/22 14:03:47;;;;;;;4.80;2.90;;;;;;;;;;3551604;40;20474;-82
2021/05/22 14:06:13;;;;;;;4.20;3.20;;;;;;;;;;3531274;40;20441;-82
2021/05/22 14:09:07;;;;;;;9.03;3.13;;;;;;;;;;3526129;40;20433;-83
2021/05/22 14:11:33;;;;;;;3.40;2.67;;;;;;;;;;3478979;41;20408;-83
2021/05/22 14:14:00;;;;;;;3.73;2.23;;;;;;;;;;3479220;41;20433;-83
2021/05/22 14:16:28;;;;;;;5.60;2.73;;;;;;;;;;3479322;41;20476;-82
2021/05/22 14:18:56;;;;;;;3.07;2.73;;;;;;;;;;3485746;41;20449;-82
2021/05/22 14:24:26;;;;;;;2.47;2.27;;;;;;;;;;3486666;41;20445;-83
2021/05/22 14:26:52;;;;;;;3.47;2.60;;;;;;;;;;3478304;41;20452;-82
2021/05/22 14:29:18;;;;;;;4.53;2.90;;;;;;;;;;3487203;41;20579;-82
2021/05/22 14:31:47;;;;;;;7.50;2.73;;;;;;;;;;3480163;41;20477;-82
2021/05/22 14:34:13;;;;;;;3.40;2.00;;;;;;;;;;3488292;41;20636;-82
2021/05/22 14:36:39;;;;;;;2.87;2.40;;;;;;;;;;3509563;40;20486;-82
2021/05/22 14:39:07;;;;;;;3.83;2.60;;;;;;;;;;3510721;40;20431;-82
2021/05/22 14:41:34;;;;;;;3.60;2.77;;;;;;;;;;3509983;40;20455;-84
2021/05/22 14:44:00;;;;;;;5.87;3.23;;;;;;;;;;3525365;40;20422;-82
2021/05/22 14:46:26;;;;;;;3.60;2.63;;;;;;;;;;3528157;40;20409;-82
2021/05/22 14:48:54;;;;;;;3.80;3.40;;;;;;;;;;3571480;39;20921;-81
2021/05/22 14:51:21;;;;;;;7.53;2.63;;;;;;;;;;3585038;39;20413;-82
2021/05/22 14:53:49;;;;;;;4.33;3.63;;;;;;;;;;3587041;39;20459;-83
2021/05/22 14:56:17;;;;;;;3.30;2.70;;;;;;;;;;3588080;40;20419;-83
2021/05/22 14:58:43;;;;;;;3.30;3.00;;;;;;;;;;3586550;39;20505;-82
2021/05/22 15:01:09;;;;;;;3.73;3.43;;;;;;;;;;3581933;39;20413;-83
2021/05/22 15:04:00;;;;;;;6.00;3.60;;;;;;;;;;3582312;39;20464;-82